CEFAS Endeavour — VQHF3 — position and weather

sailwx.info

Track history (hours):
 
Tides and Currents Weather Stations Pressure Air Temp Water Temp Dewpoint Dewpoint Depression Visibility Wind Speed Wind Dir Waves Ship Positions

Oceanographic research ship CEFAS Endeavour (UK)

Detailed information on ship capabilities available from University of Delaware's Ocean Information Center.

Last reported at 2015-May-04 06:32 UTC. Time now 2015-May-04 07:01 UTC.
Position N 52°28' E 001°45'.

Length 74 m; draft 5.3 m.

Type: Cargo ship. MMSI: 235005270.

Date/timePositionNaut miles runAvg speedWind from/ knotsBaromVisibWave heightAir tempDewpointWater temp
2015-May-04 06:32N 52°28' E 001°45'0 0.0
2015-May-04 05:32N 52°28' E 001°45'0 0.0
2015-May-04 04:32N 52°28' E 001°45'0 0.0
2015-May-04 03:32N 52°28' E 001°45'0 0.0
2015-May-04 02:32N 52°28' E 001°45'0 0.0
2015-May-04 01:32N 52°28' E 001°45'0 0.0
2015-May-04 00:26N 52°28' E 001°45'0 0.0
2015-May-03 23:32N 52°28' E 001°45'0 0.0
2015-May-03 22:32N 52°28' E 001°45'0 0.0
2015-May-03 21:32N 52°28' E 001°45'0 0.0
2015-May-03 20:32N 52°28' E 001°45'0 0.0
2015-May-03 19:29N 52°28' E 001°45'0 0.0
2015-May-03 18:32N 52°28' E 001°45'0 0.0
2015-May-03 17:32N 52°28' E 001°45'0 0.0
2015-May-03 16:32N 52°28' E 001°45'0 0.0
2015-May-03 15:32N 52°28' E 001°45'0 0.0
2015-May-03 14:32N 52°28' E 001°45'0 0.0
2015-May-03 05:20N 52°28' E 001°45'0 0.0
2015-May-03 04:29N 52°28' E 001°45'0 0.0
2015-May-03 03:32N 52°28' E 001°45'0 0.0
2015-May-03 02:32N 52°28' E 001°45'0 0.0
2015-May-03 01:32N 52°28' E 001°45'0 0.0
2015-May-03 00:32N 52°28' E 001°45'0 0.0
2015-May-02 23:29N 52°28' E 001°45'0 0.0
2015-May-02 22:32N 52°28' E 001°45'0 0.0
2015-May-02 21:32N 52°28' E 001°45'0 0.0
2015-May-02 20:32N 52°28' E 001°45'0 0.0
2015-May-02 19:32N 52°28' E 001°45'0 0.0
2015-May-02 18:32N 52°28' E 001°45'0 0.0
2015-May-02 17:32N 52°28' E 001°45'0 0.0
2015-May-02 16:26N 52°28' E 001°45'0 0.0
2015-May-02 15:32N 52°28' E 001°45'0 0.0
2015-May-02 14:29N 52°28' E 001°45'0 0.0
2015-May-02 13:32N 52°28' E 001°45'0 0.0
2015-May-02 12:32N 52°28' E 001°45'0 0.0
2015-May-02 11:29N 52°28' E 001°45'0 0.0
2015-May-02 10:32N 52°28' E 001°45'0 0.0
2015-May-02 09:32N 52°28' E 001°45'0 0.0
2015-May-02 08:29N 52°28' E 001°45'0 0.0
2015-May-02 07:32N 52°28' E 001°45'0 0.0
2015-May-02 06:32N 52°28' E 001°45'0 0.0
2015-May-02 05:32N 52°28' E 001°45'0 0.0
2015-May-02 04:29N 52°28' E 001°45'0 0.0
2015-May-02 00:08N 52°28' E 001°45'0 0.0
2015-May-01 23:23N 52°28' E 001°45'0 0.0
2015-May-01 22:32N 52°28' E 001°45'0 0.0
2015-May-01 21:29N 52°28' E 001°45'0 0.0
2015-May-01 20:32N 52°28' E 001°45'0 0.0
2015-May-01 19:29N 52°28' E 001°45'1 1.3
2015-May-01 18:33N 52°29' E 001°46'3 2.9
2015-May-01 17:33N 52°26' E 001°48'5 5.1
2015-May-01 16:33N 52°24' E 001°56'8 7.8
2015-May-01 15:33N 52°21' E 002°08'39 5.2
2015-May-01 08:11N 52°60' E 002°04'6 6.7
2015-May-01 07:15N 53°02' E 001°55'810.4
2015-May-01 06:30N 53°05' E 001°42'1110.8
2015-May-01 05:29N 53°13' E 001°32'  
Track history (hours):
 
Tides and Currents Weather Stations Pressure Air Temp Water Temp Dewpoint Dewpoint Depression Visibility Wind Speed Wind Dir Waves Ship Positions

Oceanographic research ship CEFAS Endeavour (UK)

Detailed information on ship capabilities available from University of Delaware's Ocean Information Center.

Last reported at 2015-May-04 06:32 UTC. Time now 2015-May-04 07:01 UTC.
Position N 52°28' E 001°45'.

Length 74 m; draft 5.3 m.

Type: Cargo ship. MMSI: 235005270.

Date/timePositionNaut miles runAvg speedWind from/ knotsBaromVisibWave heightAir tempDewpointWater temp
2015-May-04 06:32N 52°28' E 001°45'0 0.0
2015-May-04 05:32N 52°28' E 001°45'0 0.0
2015-May-04 04:32N 52°28' E 001°45'0 0.0
2015-May-04 03:32N 52°28' E 001°45'0 0.0
2015-May-04 02:32N 52°28' E 001°45'0 0.0
2015-May-04 01:32N 52°28' E 001°45'0 0.0
2015-May-04 00:26N 52°28' E 001°45'0 0.0
2015-May-03 23:32N 52°28' E 001°45'0 0.0
2015-May-03 22:32N 52°28' E 001°45'0 0.0
2015-May-03 21:32N 52°28' E 001°45'0 0.0
2015-May-03 20:32N 52°28' E 001°45'0 0.0
2015-May-03 19:29N 52°28' E 001°45'0 0.0
2015-May-03 18:32N 52°28' E 001°45'0 0.0
2015-May-03 17:32N 52°28' E 001°45'0 0.0
2015-May-03 16:32N 52°28' E 001°45'0 0.0
2015-May-03 15:32N 52°28' E 001°45'0 0.0
2015-May-03 14:32N 52°28' E 001°45'0 0.0
2015-May-03 05:20N 52°28' E 001°45'0 0.0
2015-May-03 04:29N 52°28' E 001°45'0 0.0
2015-May-03 03:32N 52°28' E 001°45'0 0.0
2015-May-03 02:32N 52°28' E 001°45'0 0.0
2015-May-03 01:32N 52°28' E 001°45'0 0.0
2015-May-03 00:32N 52°28' E 001°45'0 0.0
2015-May-02 23:29N 52°28' E 001°45'0 0.0
2015-May-02 22:32N 52°28' E 001°45'0 0.0
2015-May-02 21:32N 52°28' E 001°45'0 0.0
2015-May-02 20:32N 52°28' E 001°45'0 0.0
2015-May-02 19:32N 52°28' E 001°45'0 0.0
2015-May-02 18:32N 52°28' E 001°45'0 0.0
2015-May-02 17:32N 52°28' E 001°45'0 0.0
2015-May-02 16:26N 52°28' E 001°45'0 0.0
2015-May-02 15:32N 52°28' E 001°45'0 0.0
2015-May-02 14:29N 52°28' E 001°45'0 0.0
2015-May-02 13:32N 52°28' E 001°45'0 0.0
2015-May-02 12:32N 52°28' E 001°45'0 0.0
2015-May-02 11:29N 52°28' E 001°45'0 0.0
2015-May-02 10:32N 52°28' E 001°45'0 0.0
2015-May-02 09:32N 52°28' E 001°45'0 0.0
2015-May-02 08:29N 52°28' E 001°45'0 0.0
2015-May-02 07:32N 52°28' E 001°45'0 0.0
2015-May-02 06:32N 52°28' E 001°45'0 0.0
2015-May-02 05:32N 52°28' E 001°45'0 0.0
2015-May-02 04:29N 52°28' E 001°45'0 0.0
2015-May-02 00:08N 52°28' E 001°45'0 0.0
2015-May-01 23:23N 52°28' E 001°45'0 0.0
2015-May-01 22:32N 52°28' E 001°45'0 0.0
2015-May-01 21:29N 52°28' E 001°45'0 0.0
2015-May-01 20:32N 52°28' E 001°45'0 0.0
2015-May-01 19:29N 52°28' E 001°45'1 1.3
2015-May-01 18:33N 52°29' E 001°46'3 2.9
2015-May-01 17:33N 52°26' E 001°48'5 5.1
2015-May-01 16:33N 52°24' E 001°56'8 7.8
2015-May-01 15:33N 52°21' E 002°08'39 5.2
2015-May-01 08:11N 52°60' E 002°04'6 6.7
2015-May-01 07:15N 53°02' E 001°55'810.4
2015-May-01 06:30N 53°05' E 001°42'1110.8
2015-May-01 05:29N 53°13' E 001°32'  

Dump ship's entire track history